createdAt,value
2019-04-26T06:30:44.992Z,35.83
2019-04-26T06:33:35.059Z,40.15
2019-04-26T06:36:09.787Z,28.15
2019-04-26T06:39:32.137Z,35.58
2019-04-26T06:42:46.451Z,36.80
2019-04-26T06:46:11.115Z,43.52
2019-04-26T06:49:27.632Z,37.20
2019-04-26T06:52:05.072Z,29.30
2019-04-26T06:55:17.116Z,32.80
2019-04-26T06:58:28.920Z,31.50
2019-04-26T07:01:23.655Z,35.38
2019-04-26T07:05:02.783Z,33.23
2019-04-26T07:08:15.726Z,35.75
2019-04-26T07:11:02.758Z,26.77
2019-04-26T07:14:05.272Z,32.48
2019-04-26T07:16:40.249Z,33.95
2019-04-26T07:20:00.862Z,31.77
2019-04-26T07:23:23.933Z,38.78
2019-04-26T07:26:27.029Z,26.48
2019-04-26T07:30:03.182Z,35.95
2019-04-26T07:33:16.002Z,27.02
2019-04-26T07:36:05.679Z,23.52
2019-04-26T07:39:13.672Z,29.00
2019-04-26T07:42:20.246Z,30.15
2019-04-26T07:45:10.731Z,34.70
2019-04-26T07:48:30.166Z,28.47
2019-04-26T07:51:36.121Z,31.23
2019-04-26T07:54:37.349Z,25.10
2019-04-26T07:57:41.699Z,25.10
2019-04-26T08:00:17.097Z,31.65
2019-04-26T08:03:06.982Z,22.98
2019-04-26T08:05:45.295Z,27.22
2019-04-26T08:08:18.266Z,30.75
2019-04-26T08:11:04.423Z,26.25
2019-04-26T08:13:34.572Z,30.02
2019-04-26T08:16:33.827Z,25.72
2019-04-26T08:19:10.325Z,39.35
2019-04-26T08:21:47.902Z,30.95
2019-04-26T08:24:23.056Z,26.07
2019-04-26T08:27:23.770Z,33.15
2019-04-26T08:30:03.541Z,43.13
2019-04-26T08:32:40.366Z,32.42
2019-04-26T08:35:21.911Z,32.95
2019-04-26T08:37:54.994Z,34.60
2019-04-26T08:40:30.912Z,31.68
2019-04-26T08:43:30.789Z,28.83
2019-04-26T08:46:23.639Z,26.07
2019-04-26T08:49:11.646Z,83.03
2019-04-26T08:51:52.204Z,140.52
2019-04-26T08:54:27.898Z,80.65
2019-04-26T08:57:05.897Z,86.12
2019-04-26T08:59:42.648Z,107.15
2019-04-26T09:02:38.370Z,135.82
2019-04-26T09:05:41.271Z,192.98
2019-04-26T09:08:12.163Z,78.87
2019-04-26T09:10:52.716Z,88.12
2019-04-26T09:13:25.420Z,104.05
2019-04-26T09:16:07.428Z,60.00
2019-04-26T09:18:43.544Z,68.52
2019-04-26T09:21:13.398Z,63.42
2019-04-26T09:24:03.947Z,49.45
2019-04-26T09:26:48.464Z,50.15
2019-04-26T09:29:45.573Z,52.27
2019-04-26T09:32:38.071Z,44.50
2019-04-26T09:35:11.216Z,37.33
2019-04-26T09:37:40.671Z,34.88
2019-04-26T09:40:21.730Z,36.33
2019-04-26T09:42:54.433Z,29.98
2019-04-26T09:45:48.497Z,31.12
2019-04-26T09:48:24.643Z,46.37
2019-04-26T09:50:58.970Z,46.23
2019-04-26T09:53:29.561Z,227.90
2019-04-26T09:56:04.400Z,161.62
2019-04-26T09:58:35.330Z,115.82
2019-04-26T10:01:09.030Z,93.70
2019-04-26T10:03:55.842Z,107.32
2019-04-26T10:06:47.835Z,80.70
2019-04-26T10:09:30.882Z,58.87
2019-04-26T10:12:14.140Z,43.20
2019-04-26T10:14:51.965Z,24.25
2019-04-26T10:17:27.015Z,40.23
2019-04-26T10:19:58.373Z,27.10
2019-04-26T10:22:32.055Z,31.95
2019-04-26T10:25:08.046Z,28.12
2019-04-26T10:27:40.867Z,19.98
2019-04-26T10:30:21.843Z,25.57
2019-04-26T10:32:51.064Z,26.07
2019-04-26T10:35:28.276Z,18.45
2019-04-26T10:38:05.678Z,19.98
2019-04-26T10:40:39.117Z,32.15
2019-04-26T10:43:11.887Z,18.10
2019-04-26T10:45:45.971Z,18.77
2019-04-26T10:48:17.323Z,21.33
2019-04-26T10:50:50.166Z,21.75
2019-04-26T10:53:38.866Z,22.20
2019-04-26T10:56:33.014Z,34.10
2019-04-26T10:59:22.752Z,26.55
2019-04-26T11:01:53.482Z,20.05
2019-04-26T11:04:26.009Z,21.10
2019-04-26T11:06:58.074Z,29.25
2019-04-26T11:09:29.343Z,28.15
2019-04-26T11:12:11.762Z,28.12
2019-04-26T11:14:42.453Z,35.45
2019-04-26T11:17:16.045Z,36.28
2019-04-26T11:20:09.851Z,40.12
2019-04-26T11:22:40.594Z,31.30
2019-04-26T11:25:12.337Z,37.10
2019-04-26T11:27:48.519Z,19.75
2019-04-26T11:30:20.795Z,19.32
2019-04-26T11:32:50.442Z,21.85
2019-04-26T11:35:21.825Z,15.40
2019-04-26T11:37:55.169Z,16.45
2019-04-26T11:40:25.780Z,19.30
2019-04-26T11:42:56.295Z,17.25
2019-04-26T11:45:26.875Z,17.35
2019-04-26T11:47:57.351Z,15.63
2019-04-26T11:50:30.175Z,15.60
2019-04-26T11:53:00.640Z,15.30
2019-04-26T11:55:31.489Z,15.95
2019-04-26T11:58:04.595Z,15.88
2019-04-26T12:00:39.870Z,17.73
2019-04-26T12:03:11.671Z,21.35
2019-04-26T12:06:05.560Z,21.30
2019-04-26T12:08:50.464Z,20.27
2019-04-26T12:11:31.321Z,31.70
2019-04-26T12:13:55.449Z,27.15
2019-04-26T12:16:47.156Z,20.45
2019-04-26T12:19:08.713Z,23.07
2019-04-26T12:21:39.139Z,15.80
2019-04-26T12:27:01.849Z,27.20
2019-04-26T12:29:32.275Z,27.42
2019-04-26T12:32:02.694Z,21.70
2019-04-26T12:34:33.415Z,20.68
2019-04-26T12:37:03.993Z,21.27
2019-04-26T12:39:36.768Z,14.55
2019-04-26T12:42:08.207Z,14.10
2019-04-26T12:44:47.115Z,18.20
2019-04-26T12:47:22.263Z,21.50
2019-04-26T12:49:54.586Z,21.00
2019-04-26T12:52:24.964Z,15.45
2019-04-26T12:54:57.572Z,19.05
2019-04-26T13:00:16.810Z,13.45
2019-04-26T13:02:50.089Z,17.85
2019-04-26T13:05:23.509Z,14.10
2019-04-26T13:07:54.866Z,14.53
2019-04-26T13:10:50.683Z,14.60
2019-04-26T13:13:50.990Z,18.30
2019-04-26T13:18:41.115Z,11.85
2019-04-26T13:21:11.932Z,19.02
2019-04-26T13:23:42.408Z,15.58
2019-04-26T13:26:12.867Z,13.30
2019-04-26T13:28:43.154Z,14.15
2019-04-26T13:31:16.094Z,19.35
2019-04-26T13:33:48.953Z,17.00
2019-04-26T13:36:19.412Z,16.90
2019-04-26T13:38:49.751Z,10.63
2019-04-26T13:41:20.405Z,14.05
2019-04-26T13:43:50.938Z,14.20
2019-04-26T13:46:35.920Z,17.17
2019-04-26T13:49:31.657Z,13.95
2019-04-26T13:52:02.158Z,13.68
2019-04-26T13:54:35.742Z,13.90
2019-04-26T13:57:10.061Z,11.38
2019-04-26T13:59:39.187Z,11.93
2019-04-26T14:02:11.999Z,10.95
2019-04-26T14:04:42.816Z,13.85
2019-04-26T14:07:13.285Z,19.37
2019-04-26T14:09:43.642Z,13.18
2019-04-26T14:12:18.677Z,13.30
2019-04-26T14:14:46.395Z,14.63
2019-04-26T14:17:16.885Z,15.50
2019-04-26T14:19:49.468Z,20.05
2019-04-26T14:22:20.949Z,14.43
2019-04-26T14:25:00.680Z,18.73
2019-04-26T14:27:36.354Z,11.97
2019-04-26T14:30:08.921Z,10.43
2019-04-26T14:32:39.279Z,11.68
2019-04-26T14:35:11.414Z,8.88
2019-04-26T14:37:45.327Z,10.58
2019-04-26T14:40:17.155Z,16.70
2019-04-26T14:42:47.199Z,13.35
2019-04-26T14:45:23.948Z,11.03
2019-04-26T14:47:49.651Z,14.83
2019-04-26T14:50:19.972Z,15.18
2019-04-26T14:52:50.198Z,17.82
2019-04-26T14:55:21.080Z,13.15
2019-04-26T14:57:53.992Z,12.07
2019-04-26T15:00:30.316Z,14.18
2019-04-26T15:03:17.293Z,18.98
2019-04-26T15:06:09.095Z,17.87
2019-04-26T15:08:40.542Z,17.42
2019-04-26T15:11:12.850Z,15.63
2019-04-26T15:13:45.366Z,11.38
2019-04-26T15:16:15.378Z,16.10
2019-04-26T15:18:45.961Z,13.95
2019-04-26T15:21:16.388Z,13.70
2019-04-26T15:23:46.946Z,17.77
2019-04-26T15:26:18.531Z,13.85
2019-04-26T15:28:50.410Z,16.15
2019-04-26T15:31:24.509Z,29.77
2019-04-26T15:33:53.494Z,17.07
2019-04-26T15:36:24.199Z,15.13
2019-04-26T15:38:55.472Z,11.88
2019-04-26T15:41:39.069Z,12.00
2019-04-26T15:44:16.224Z,15.45
2019-04-26T15:46:55.734Z,13.43
2019-04-26T15:49:42.946Z,13.13
2019-04-26T15:52:13.381Z,14.10
2019-04-26T15:54:43.712Z,17.60
2019-04-26T15:57:14.135Z,19.73
2019-04-26T15:59:44.555Z,14.90
2019-04-26T16:02:18.452Z,15.23
2019-04-26T16:04:47.370Z,17.10
2019-04-26T16:07:27.475Z,17.35
2019-04-26T16:09:55.874Z,19.00
2019-04-26T16:12:25.822Z,16.62
2019-04-26T16:14:56.140Z,15.25
2019-04-26T16:17:26.638Z,17.52
2019-04-26T16:20:00.135Z,18.20
2019-04-26T16:22:30.092Z,17.17
2019-04-26T16:25:05.019Z,17.67
2019-04-26T16:27:35.030Z,18.17
2019-04-26T16:30:28.516Z,18.77
2019-04-26T16:33:07.279Z,14.23
2019-04-26T16:35:37.650Z,14.13
2019-04-26T16:38:25.795Z,16.25
2019-04-26T16:40:56.235Z,20.48
2019-04-26T16:43:36.596Z,16.82
2019-04-26T16:45:58.637Z,17.87
2019-04-26T16:48:29.019Z,17.42
2019-04-26T16:51:05.633Z,17.30
2019-04-26T16:53:46.410Z,14.18
2019-04-26T16:56:03.761Z,16.80
2019-04-26T16:58:38.156Z,16.12
2019-04-26T17:01:10.270Z,19.30
2019-04-26T17:03:45.231Z,20.82
2019-04-26T17:06:13.942Z,23.73
2019-04-26T17:08:49.185Z,17.92
2019-04-26T17:11:14.768Z,17.57
2019-04-26T17:13:51.281Z,14.90
2019-04-26T17:16:18.378Z,17.60
2019-04-26T17:18:48.774Z,19.35
2019-04-26T17:21:23.809Z,17.17
2019-04-26T17:26:46.931Z,11.12
2019-04-26T17:29:17.313Z,14.68
2019-04-26T17:31:47.667Z,16.75
2019-04-26T17:34:18.156Z,17.20
2019-04-26T17:36:50.458Z,15.98
2019-04-26T17:39:22.361Z,16.55
2019-04-26T17:41:54.361Z,12.23
2019-04-26T17:44:26.963Z,16.27
2019-04-26T17:46:59.703Z,18.15
2019-04-26T17:49:29.339Z,13.38
2019-04-26T17:52:01.955Z,15.72
2019-04-26T17:54:46.002Z,15.05
2019-04-26T17:57:08.854Z,17.15
2019-04-26T17:59:37.052Z,16.95
2019-04-26T18:02:40.688Z,17.40
2019-04-26T18:05:00.528Z,24.77
2019-04-26T18:07:40.257Z,29.10
2019-04-26T18:10:02.404Z,88.12
2019-04-26T18:12:32.641Z,33.42
2019-04-26T18:15:06.241Z,43.80
2019-04-26T18:17:58.060Z,33.98
2019-04-26T18:20:47.460Z,28.73
2019-04-26T18:23:18.765Z,29.40
2019-04-26T18:25:50.372Z,42.83
2019-04-26T18:28:20.790Z,31.12
2019-04-26T18:30:51.155Z,21.90
2019-04-26T18:33:24.206Z,26.52
2019-04-26T18:35:57.396Z,22.15
2019-04-26T18:38:25.576Z,27.35
2019-04-26T18:41:00.901Z,29.40
2019-04-26T18:43:28.007Z,24.50
2019-04-26T18:46:03.355Z,30.92
2019-04-26T18:48:40.583Z,26.02
2019-04-26T18:51:07.600Z,20.62
2019-04-26T18:54:02.795Z,27.25
2019-04-26T18:56:39.728Z,26.50
2019-04-26T18:59:11.728Z,20.17
2019-04-26T19:01:42.019Z,26.12
2019-04-26T19:04:15.531Z,29.48
2019-04-26T19:06:45.599Z,23.95
2019-04-26T19:09:27.676Z,25.15
2019-04-26T19:11:58.211Z,20.40
2019-04-26T19:14:58.791Z,18.82
2019-04-26T19:17:53.534Z,34.48
2019-04-26T19:20:35.227Z,26.20
2019-04-26T19:23:08.042Z,28.15
2019-04-26T19:25:40.903Z,26.82
2019-04-26T19:28:11.978Z,27.42
2019-04-26T19:30:48.909Z,33.38
2019-04-26T19:33:17.001Z,21.10
2019-04-26T19:35:47.471Z,22.93
2019-04-26T19:38:18.153Z,22.80
2019-04-26T19:40:48.643Z,31.35
2019-04-26T19:43:30.274Z,33.10
2019-04-26T19:46:10.092Z,37.83
2019-04-26T19:48:56.647Z,25.68
2019-04-26T19:51:46.021Z,33.83
2019-04-26T19:54:27.712Z,28.05
2019-04-26T19:57:01.090Z,38.00
2019-04-26T19:59:34.463Z,31.93
2019-04-26T20:02:18.217Z,29.77
2019-04-26T20:04:48.953Z,36.17
2019-04-26T20:07:19.380Z,32.00
2019-04-26T20:09:49.809Z,33.63
2019-04-26T20:12:23.379Z,34.45
2019-04-26T20:14:58.076Z,33.40
2019-04-26T20:17:24.352Z,43.73
2019-04-26T20:19:55.377Z,36.10
2019-04-26T20:22:28.595Z,34.70
2019-04-26T20:24:57.906Z,30.65
2019-04-26T20:27:28.277Z,32.23
2019-04-26T20:29:58.770Z,29.15
2019-04-26T20:32:33.259Z,36.45
2019-04-26T20:35:19.610Z,37.67
2019-04-26T20:37:50.036Z,40.45
2019-04-26T20:40:24.699Z,38.17
2019-04-26T20:42:57.326Z,42.55
2019-04-26T20:45:24.508Z,36.10
2019-04-26T20:47:55.796Z,39.83
2019-04-26T20:50:28.710Z,33.42
2019-04-26T20:53:02.079Z,42.23
2019-04-26T20:55:34.499Z,39.18
2019-04-26T20:58:05.567Z,43.28
2019-04-26T21:00:36.460Z,36.70
2019-04-26T21:03:20.172Z,37.23
2019-04-26T21:05:46.121Z,44.25
2019-04-26T21:08:12.403Z,47.33
2019-04-26T21:10:43.089Z,49.05
2019-04-26T21:13:13.537Z,43.40
2019-04-26T21:15:56.037Z,39.55
2019-04-26T21:18:15.919Z,53.33
2019-04-26T21:21:10.484Z,53.58
2019-04-26T21:23:40.052Z,55.55
2019-04-26T21:26:35.477Z,49.65
2019-04-26T21:29:30.695Z,49.40
2019-04-26T21:32:06.744Z,56.73
2019-04-26T21:34:50.778Z,48.78
2019-04-26T21:37:27.979Z,57.20
2019-04-26T21:40:11.873Z,55.25
2019-04-26T21:42:43.449Z,50.55
2019-04-26T21:45:14.387Z,51.00
2019-04-26T21:47:44.822Z,51.28
2019-04-26T21:50:15.937Z,49.38
2019-04-26T21:52:58.597Z,48.23
2019-04-26T21:55:35.346Z,48.78
2019-04-26T21:58:02.748Z,51.13
2019-04-26T22:00:53.622Z,47.13
2019-04-26T22:03:25.627Z,46.65
2019-04-26T22:05:56.066Z,42.53
2019-04-26T22:08:30.035Z,44.53
2019-04-26T22:11:00.515Z,46.50
2019-04-26T22:13:44.796Z,50.30
2019-04-26T22:16:37.183Z,48.98
2019-04-26T22:19:14.607Z,39.08
2019-04-26T22:22:05.790Z,50.70
2019-04-26T22:24:37.109Z,45.83
2019-04-26T22:27:07.498Z,47.45
2019-04-26T22:29:37.992Z,40.03
2019-04-26T22:32:11.452Z,39.35
2019-04-26T22:34:42.784Z,37.35
2019-04-26T22:37:14.817Z,41.08
2019-04-26T22:39:45.141Z,39.95
2019-04-26T22:42:15.945Z,38.63
2019-04-26T22:44:55.169Z,45.20
2019-04-26T22:47:33.904Z,35.68
2019-04-26T22:50:05.750Z,42.13
2019-04-26T22:52:36.194Z,39.55
2019-04-26T22:55:07.597Z,39.30
2019-04-26T22:57:38.118Z,42.05
2019-04-26T23:00:08.689Z,42.67
2019-04-26T23:02:40.659Z,42.48
2019-04-26T23:05:11.116Z,36.58
2019-04-26T23:07:41.611Z,42.62
2019-04-26T23:10:13.005Z,38.98
2019-04-26T23:13:04.525Z,44.90
2019-04-26T23:15:51.155Z,40.78
2019-04-26T23:18:51.528Z,42.13
2019-04-26T23:21:25.353Z,48.40
2019-04-26T23:23:55.838Z,45.70
2019-04-26T23:26:26.221Z,35.90
2019-04-26T23:28:56.726Z,36.98
2019-04-26T23:31:27.202Z,46.33
2019-04-26T23:33:57.718Z,34.48
2019-04-26T23:36:28.112Z,38.15
2019-04-26T23:38:58.589Z,37.88
2019-04-26T23:41:29.023Z,37.42
2019-04-26T23:44:02.712Z,41.25
2019-04-26T23:46:33.087Z,37.23
2019-04-26T23:49:03.615Z,39.98
2019-04-26T23:51:45.954Z,42.60
2019-04-26T23:54:16.510Z,41.95
2019-04-26T23:56:46.870Z,38.33
2019-04-26T23:59:20.748Z,42.88
